sensor_id;sensor_type;location;lat;lon;timestamp;pressure;altitude;pressure_sealevel;temperature;humidity
43814;BME280;29669;55.706;37.656;2023-02-28T00:01:32;100480.09;;;-6.03;nan
43814;BME280;29669;55.706;37.656;2023-02-28T00:04:03;100480.88;;;-6.01;nan
43814;BME280;29669;55.706;37.656;2023-02-28T00:06:31;100475.91;;;-6.04;nan
43814;BME280;29669;55.706;37.656;2023-02-28T00:08:59;100467.56;;;-6.06;nan
43814;BME280;29669;55.706;37.656;2023-02-28T00:11:27;100478.50;;;-6.06;nan
43814;BME280;29669;55.706;37.656;2023-02-28T00:13:55;100467.63;;;-6.09;nan
43814;BME280;29669;55.706;37.656;2023-02-28T00:16:23;100466.88;;;-6.13;nan
43814;BME280;29669;55.706;37.656;2023-02-28T00:18:52;100464.41;;;-6.14;nan
43814;BME280;29669;55.706;37.656;2023-02-28T00:21:21;100466.97;;;-6.16;nan
43814;BME280;29669;55.706;37.656;2023-02-28T00:23:49;100458.56;;;-6.16;nan
43814;BME280;29669;55.706;37.656;2023-02-28T00:26:17;100451.06;;;-6.19;nan
43814;BME280;29669;55.706;37.656;2023-02-28T00:28:49;100441.97;;;-6.25;nan
43814;BME280;29669;55.706;37.656;2023-02-28T00:31:20;100455.44;;;-6.26;nan
43814;BME280;29669;55.706;37.656;2023-02-28T00:33:48;100454.66;;;-6.28;nan
43814;BME280;29669;55.706;37.656;2023-02-28T00:36:16;100453.75;;;-6.25;nan
43814;BME280;29669;55.706;37.656;2023-02-28T00:38:44;100453.06;;;-6.30;nan
43814;BME280;29669;55.706;37.656;2023-02-28T00:41:12;100455.38;;;-6.23;nan
43814;BME280;29669;55.706;37.656;2023-02-28T00:43:40;100438.66;;;-6.27;nan
43814;BME280;29669;55.706;37.656;2023-02-28T00:46:10;100442.13;;;-6.31;nan
43814;BME280;29669;55.706;37.656;2023-02-28T00:48:38;100435.50;;;-6.35;nan
43814;BME280;29669;55.706;37.656;2023-02-28T00:51:06;100438.13;;;-6.39;nan
43814;BME280;29669;55.706;37.656;2023-02-28T00:53:34;100434.91;;;-6.44;nan
43814;BME280;29669;55.706;37.656;2023-02-28T00:56:02;100430.88;;;-6.50;nan
43814;BME280;29669;55.706;37.656;2023-02-28T00:58:31;100423.34;;;-6.51;nan
43814;BME280;29669;55.706;37.656;2023-02-28T01:00:59;100424.22;;;-6.54;nan
43814;BME280;29669;55.706;37.656;2023-02-28T01:03:28;100429.31;;;-6.55;nan
43814;BME280;29669;55.706;37.656;2023-02-28T01:05:56;100407.75;;;-6.67;nan
43814;BME280;29669;55.706;37.656;2023-02-28T01:08:24;100418.66;;;-6.65;nan
43814;BME280;29669;55.706;37.656;2023-02-28T01:10:53;100416.97;;;-6.66;nan
43814;BME280;29669;55.706;37.656;2023-02-28T01:13:22;100403.69;;;-6.72;nan
43814;BME280;29669;55.706;37.656;2023-02-28T01:15:53;100402.16;;;-6.78;nan
43814;BME280;29669;55.706;37.656;2023-02-28T01:18:22;100397.97;;;-6.79;nan
43814;BME280;29669;55.706;37.656;2023-02-28T01:20:50;100388.66;;;-6.77;nan
43814;BME280;29669;55.706;37.656;2023-02-28T01:23:21;100382.03;;;-6.80;nan
43814;BME280;29669;55.706;37.656;2023-02-28T01:25:51;100375.25;;;-6.79;nan
43814;BME280;29669;55.706;37.656;2023-02-28T01:28:19;100362.63;;;-6.79;nan
43814;BME280;29669;55.706;37.656;2023-02-28T01:30:50;100363.41;;;-6.76;nan
43814;BME280;29669;55.706;37.656;2023-02-28T01:33:19;100365.78;;;-6.71;nan
43814;BME280;29669;55.706;37.656;2023-02-28T01:35:46;100359.91;;;-6.72;nan
43814;BME280;29669;55.706;37.656;2023-02-28T01:38:15;100363.00;;;-6.62;nan
43814;BME280;29669;55.706;37.656;2023-02-28T01:40:50;100359.53;;;-6.58;nan
43814;BME280;29669;55.706;37.656;2023-02-28T01:43:28;100347.91;;;-6.63;nan
43814;BME280;29669;55.706;37.656;2023-02-28T01:45:58;100340.38;;;-6.65;nan
43814;BME280;29669;55.706;37.656;2023-02-28T01:48:32;100332.03;;;-6.67;nan
43814;BME280;29669;55.706;37.656;2023-02-28T01:51:06;100326.28;;;-6.72;nan
43814;BME280;29669;55.706;37.656;2023-02-28T01:53:41;100328.84;;;-6.74;nan
43814;BME280;29669;55.706;37.656;2023-02-28T01:56:12;100318.63;;;-6.69;nan
43814;BME280;29669;55.706;37.656;2023-02-28T01:58:53;100316.09;;;-6.69;nan
43814;BME280;29669;55.706;37.656;2023-02-28T02:01:27;100325.28;;;-6.66;nan
43814;BME280;29669;55.706;37.656;2023-02-28T02:04:00;100305.25;;;-6.72;nan
43814;BME280;29669;55.706;37.656;2023-02-28T02:06:52;100311.84;;;-6.67;nan
43814;BME280;29669;55.706;37.656;2023-02-28T02:09:18;100316.00;;;-6.66;nan
43814;BME280;29669;55.706;37.656;2023-02-28T02:11:47;100300.91;;;-6.67;nan
43814;BME280;29669;55.706;37.656;2023-02-28T02:14:49;100300.78;;;-6.63;nan
43814;BME280;29669;55.706;37.656;2023-02-28T02:17:37;100294.97;;;-6.65;nan
43814;BME280;29669;55.706;37.656;2023-02-28T02:23:33;100289.00;;;-6.62;nan
43814;BME280;29669;55.706;37.656;2023-02-28T02:26:52;100293.13;;;-6.60;nan
43814;BME280;29669;55.706;37.656;2023-02-28T02:37:42;100269.63;;;-6.62;nan
43814;BME280;29669;55.706;37.656;2023-02-28T02:40:12;100276.22;;;-6.58;nan
43814;BME280;29669;55.706;37.656;2023-02-28T02:48:12;100262.56;;;-6.51;nan
43814;BME280;29669;55.706;37.656;2023-02-28T02:51:07;100258.13;;;-6.43;nan
43814;BME280;29669;55.706;37.656;2023-02-28T02:53:50;100247.97;;;-6.41;nan
43814;BME280;29669;55.706;37.656;2023-02-28T02:56:23;100247.22;;;-6.43;nan
43814;BME280;29669;55.706;37.656;2023-02-28T02:58:55;100244.81;;;-6.48;nan
43814;BME280;29669;55.706;37.656;2023-02-28T03:01:27;100237.22;;;-6.48;nan
43814;BME280;29669;55.706;37.656;2023-02-28T03:04:04;100236.44;;;-6.50;nan
43814;BME280;29669;55.706;37.656;2023-02-28T03:06:33;100238.09;;;-6.49;nan
43814;BME280;29669;55.706;37.656;2023-02-28T03:09:03;100222.91;;;-6.47;nan
43814;BME280;29669;55.706;37.656;2023-02-28T03:11:32;100222.03;;;-6.46;nan
43814;BME280;29669;55.706;37.656;2023-02-28T03:22:52;100217.91;;;-6.49;nan
43814;BME280;29669;55.706;37.656;2023-02-28T03:30:52;100180.13;;;-6.52;nan
43814;BME280;29669;55.706;37.656;2023-02-28T03:33:57;100184.28;;;-6.51;nan
43814;BME280;29669;55.706;37.656;2023-02-28T03:36:29;100172.66;;;-6.55;nan
43814;BME280;29669;55.706;37.656;2023-02-28T03:39:01;100164.06;;;-6.49;nan
43814;BME280;29669;55.706;37.656;2023-02-28T03:41:37;100168.41;;;-6.53;nan
43814;BME280;29669;55.706;37.656;2023-02-28T03:47:11;100162.34;;;-6.49;nan
43814;BME280;29669;55.706;37.656;2023-02-28T03:49:46;100155.53;;;-6.45;nan
43814;BME280;29669;55.706;37.656;2023-02-28T03:52:18;100144.59;;;-6.46;nan
43814;BME280;29669;55.706;37.656;2023-02-28T03:54:51;100147.13;;;-6.46;nan
43814;BME280;29669;55.706;37.656;2023-02-28T03:57:28;100128.63;;;-6.46;nan
43814;BME280;29669;55.706;37.656;2023-02-28T04:00:05;100137.88;;;-6.47;nan
43814;BME280;29669;55.706;37.656;2023-02-28T04:02:39;100123.63;;;-6.48;nan
43814;BME280;29669;55.706;37.656;2023-02-28T04:05:08;100129.44;;;-6.46;nan
43814;BME280;29669;55.706;37.656;2023-02-28T04:07:35;100115.94;;;-6.45;nan
43814;BME280;29669;55.706;37.656;2023-02-28T04:10:04;100114.13;;;-6.41;nan
43814;BME280;29669;55.706;37.656;2023-02-28T04:12:32;100105.59;;;-6.37;nan
43814;BME280;29669;55.706;37.656;2023-02-28T04:14:59;100102.34;;;-6.41;nan
43814;BME280;29669;55.706;37.656;2023-02-28T04:17:29;100093.94;;;-6.41;nan
43814;BME280;29669;55.706;37.656;2023-02-28T04:19:57;100099.75;;;-6.39;nan
43814;BME280;29669;55.706;37.656;2023-02-28T04:22:25;100098.84;;;-6.37;nan
43814;BME280;29669;55.706;37.656;2023-02-28T04:24:56;100098.84;;;-6.37;nan
43814;BME280;29669;55.706;37.656;2023-02-28T04:27:24;100091.94;;;-6.32;nan
43814;BME280;29669;55.706;37.656;2023-02-28T04:29:51;100108.69;;;-6.29;nan
43814;BME280;29669;55.706;37.656;2023-02-28T04:32:19;100095.22;;;-6.28;nan
43814;BME280;29669;55.706;37.656;2023-02-28T04:34:47;100090.09;;;-6.27;nan
43814;BME280;29669;55.706;37.656;2023-02-28T04:37:14;100079.03;;;-6.23;nan
43814;BME280;29669;55.706;37.656;2023-02-28T04:39:43;100082.09;;;-6.15;nan
43814;BME280;29669;55.706;37.656;2023-02-28T04:42:12;100068.50;;;-6.11;nan
43814;BME280;29669;55.706;37.656;2023-02-28T04:44:40;100064.13;;;-6.06;nan
43814;BME280;29669;55.706;37.656;2023-02-28T04:47:08;100075.59;;;-5.97;nan
43814;BME280;29669;55.706;37.656;2023-02-28T04:49:36;100068.53;;;-5.88;nan
43814;BME280;29669;55.706;37.656;2023-02-28T04:52:04;100057.53;;;-5.87;nan
43814;BME280;29669;55.706;37.656;2023-02-28T04:54:32;100040.44;;;-5.80;nan
43814;BME280;29669;55.706;37.656;2023-02-28T04:57:00;100043.63;;;-5.75;nan
43814;BME280;29669;55.706;37.656;2023-02-28T04:59:28;100035.03;;;-5.71;nan
43814;BME280;29669;55.706;37.656;2023-02-28T05:01:56;100034.97;;;-5.69;nan
43814;BME280;29669;55.706;37.656;2023-02-28T05:04:24;100029.94;;;-5.69;nan
43814;BME280;29669;55.706;37.656;2023-02-28T05:06:52;100032.38;;;-5.66;nan
43814;BME280;29669;55.706;37.656;2023-02-28T05:09:20;100041.50;;;-5.62;nan
43814;BME280;29669;55.706;37.656;2023-02-28T05:11:48;100016.16;;;-5.61;nan
43814;BME280;29669;55.706;37.656;2023-02-28T05:14:16;100020.03;;;-5.52;nan
43814;BME280;29669;55.706;37.656;2023-02-28T05:16:44;100005.41;;;-5.44;nan
43814;BME280;29669;55.706;37.656;2023-02-28T05:19:11;100028.56;;;-5.33;nan
43814;BME280;29669;55.706;37.656;2023-02-28T05:21:53;99990.69;;;-5.35;nan
43814;BME280;29669;55.706;37.656;2023-02-28T05:24:22;99991.34;;;-5.30;nan
43814;BME280;29669;55.706;37.656;2023-02-28T05:26:53;99982.06;;;-5.29;nan
43814;BME280;29669;55.706;37.656;2023-02-28T05:29:22;99969.09;;;-5.22;nan
43814;BME280;29669;55.706;37.656;2023-02-28T05:31:50;99959.69;;;-5.18;nan
43814;BME280;29669;55.706;37.656;2023-02-28T05:34:19;99981.41;;;-5.13;nan
43814;BME280;29669;55.706;37.656;2023-02-28T05:36:47;99953.38;;;-5.08;nan
43814;BME280;29669;55.706;37.656;2023-02-28T05:39:14;99941.50;;;-5.06;nan
43814;BME280;29669;55.706;37.656;2023-02-28T05:41:43;99953.16;;;-5.02;nan
43814;BME280;29669;55.706;37.656;2023-02-28T05:44:11;99925.06;;;-4.96;nan
43814;BME280;29669;55.706;37.656;2023-02-28T05:46:40;99929.16;;;-4.94;nan
43814;BME280;29669;55.706;37.656;2023-02-28T05:49:08;99929.75;;;-4.87;nan
43814;BME280;29669;55.706;37.656;2023-02-28T05:51:36;99908.59;;;-4.86;nan
43814;BME280;29669;55.706;37.656;2023-02-28T05:54:07;99914.31;;;-4.81;nan
43814;BME280;29669;55.706;37.656;2023-02-28T05:56:35;99914.78;;;-4.73;nan
43814;BME280;29669;55.706;37.656;2023-02-28T05:59:06;99912.66;;;-4.62;nan
43814;BME280;29669;55.706;37.656;2023-02-28T06:01:40;99908.22;;;-4.57;nan
43814;BME280;29669;55.706;37.656;2023-02-28T06:04:10;99899.59;;;-4.53;nan
43814;BME280;29669;55.706;37.656;2023-02-28T06:06:52;99902.06;;;-4.51;nan
43814;BME280;29669;55.706;37.656;2023-02-28T06:09:20;99887.56;;;-4.48;nan
43814;BME280;29669;55.706;37.656;2023-02-28T06:11:49;99888.88;;;-4.39;nan
43814;BME280;29669;55.706;37.656;2023-02-28T06:14:19;99888.56;;;-4.32;nan
43814;BME280;29669;55.706;37.656;2023-02-28T06:16:50;99869.22;;;-4.34;nan
43814;BME280;29669;55.706;37.656;2023-02-28T06:19:18;99854.63;;;-4.29;nan
43814;BME280;29669;55.706;37.656;2023-02-28T06:21:49;99844.88;;;-4.18;nan
43814;BME280;29669;55.706;37.656;2023-02-28T06:24:20;99851.38;;;-4.13;nan
43814;BME280;29669;55.706;37.656;2023-02-28T06:26:49;99849.09;;;-4.00;nan
43814;BME280;29669;55.706;37.656;2023-02-28T06:29:17;99853.88;;;-3.94;nan
43814;BME280;29669;55.706;37.656;2023-02-28T06:32:35;99850.16;;;-3.87;nan
43814;BME280;29669;55.706;37.656;2023-02-28T06:35:04;99821.03;;;-3.78;nan
43814;BME280;29669;55.706;37.656;2023-02-28T06:37:32;99824.75;;;-3.68;nan
43814;BME280;29669;55.706;37.656;2023-02-28T06:40:00;99825.25;;;-3.43;nan
43814;BME280;29669;55.706;37.656;2023-02-28T06:42:29;99832.41;;;-3.17;nan
43814;BME280;29669;55.706;37.656;2023-02-28T06:44:58;99833.50;;;-3.06;nan
43814;BME280;29669;55.706;37.656;2023-02-28T06:47:27;99825.50;;;-2.98;nan
43814;BME280;29669;55.706;37.656;2023-02-28T06:49:54;99827.59;;;-2.89;nan
43814;BME280;29669;55.706;37.656;2023-02-28T06:52:22;99813.72;;;-2.66;nan
43814;BME280;29669;55.706;37.656;2023-02-28T06:54:51;99809.50;;;-2.50;nan
43814;BME280;29669;55.706;37.656;2023-02-28T06:57:30;99800.22;;;-2.36;nan
43814;BME280;29669;55.706;37.656;2023-02-28T07:00:00;99774.91;;;-2.37;nan
43814;BME280;29669;55.706;37.656;2023-02-28T07:02:33;99762.94;;;-2.20;nan
43814;BME280;29669;55.706;37.656;2023-02-28T07:05:03;99763.53;;;-2.01;nan
43814;BME280;29669;55.706;37.656;2023-02-28T07:07:32;99745.59;;;-1.98;nan
43814;BME280;29669;55.706;37.656;2023-02-28T07:10:01;99768.38;;;-1.96;nan
43814;BME280;29669;55.706;37.656;2023-02-28T07:12:29;99746.97;;;-1.92;nan
43814;BME280;29669;55.706;37.656;2023-02-28T07:14:57;99746.88;;;-1.91;nan
43814;BME280;29669;55.706;37.656;2023-02-28T07:17:26;99759.91;;;-1.81;nan
43814;BME280;29669;55.706;37.656;2023-02-28T07:19:54;99747.28;;;-1.82;nan
43814;BME280;29669;55.706;37.656;2023-02-28T07:22:22;99730.22;;;-1.80;nan
43814;BME280;29669;55.706;37.656;2023-02-28T07:24:50;99709.22;;;-1.70;nan
43814;BME280;29669;55.706;37.656;2023-02-28T07:27:19;99704.47;;;-1.46;nan
43814;BME280;29669;55.706;37.656;2023-02-28T07:29:52;99700.66;;;-1.39;nan
43814;BME280;29669;55.706;37.656;2023-02-28T07:32:21;99700.31;;;-1.33;nan
43814;BME280;29669;55.706;37.656;2023-02-28T07:34:49;99693.56;;;-1.34;nan
43814;BME280;29669;55.706;37.656;2023-02-28T07:37:17;99700.47;;;-1.36;nan
43814;BME280;29669;55.706;37.656;2023-02-28T07:39:46;99685.03;;;-1.33;nan
43814;BME280;29669;55.706;37.656;2023-02-28T07:42:16;99682.84;;;-1.25;nan
43814;BME280;29669;55.706;37.656;2023-02-28T07:44:44;99682.09;;;-1.13;nan
43814;BME280;29669;55.706;37.656;2023-02-28T07:47:12;99682.09;;;-0.99;nan
43814;BME280;29669;55.706;37.656;2023-02-28T07:49:41;99672.72;;;-0.84;nan
43814;BME280;29669;55.706;37.656;2023-02-28T07:52:09;99673.00;;;-0.89;nan
43814;BME280;29669;55.706;37.656;2023-02-28T07:54:38;99668.81;;;-0.90;nan
43814;BME280;29669;55.706;37.656;2023-02-28T07:57:07;99675.34;;;-0.86;nan
43814;BME280;29669;55.706;37.656;2023-02-28T07:59:35;99665.47;;;-0.64;nan
43814;BME280;29669;55.706;37.656;2023-02-28T08:02:03;99711.84;;;-0.45;nan
43814;BME280;29669;55.706;37.656;2023-02-28T08:04:32;99668.28;;;-0.54;nan
43814;BME280;29669;55.706;37.656;2023-02-28T08:07:00;99661.81;;;-0.60;nan
43814;BME280;29669;55.706;37.656;2023-02-28T08:09:28;99652.72;;;-0.64;nan
43814;BME280;29669;55.706;37.656;2023-02-28T08:11:57;99652.00;;;-0.66;nan
43814;BME280;29669;55.706;37.656;2023-02-28T08:14:26;99648.09;;;-0.71;nan
43814;BME280;29669;55.706;37.656;2023-02-28T08:16:54;99634.88;;;-0.64;nan
43814;BME280;29669;55.706;37.656;2023-02-28T08:19:22;99644.13;;;-0.49;nan
43814;BME280;29669;55.706;37.656;2023-02-28T08:21:51;99625.22;;;-0.32;nan
43814;BME280;29669;55.706;37.656;2023-02-28T08:24:19;99625.50;;;-0.37;nan
43814;BME280;29669;55.706;37.656;2023-02-28T08:26:47;99610.53;;;-0.29;nan
43814;BME280;29669;55.706;37.656;2023-02-28T08:29:15;99595.03;;;-0.13;nan
43814;BME280;29669;55.706;37.656;2023-02-28T08:31:43;99594.69;;;0.06;nan
43814;BME280;29669;55.706;37.656;2023-02-28T08:34:14;99588.97;;;0.15;nan
43814;BME280;29669;55.706;37.656;2023-02-28T08:36:42;99583.03;;;0.14;nan
43814;BME280;29669;55.706;37.656;2023-02-28T08:39:12;99576.50;;;0.10;nan
43814;BME280;29669;55.706;37.656;2023-02-28T08:41:42;99582.81;;;0.17;nan
43814;BME280;29669;55.706;37.656;2023-02-28T08:44:10;99613.44;;;0.17;nan
43814;BME280;29669;55.706;37.656;2023-02-28T08:46:38;99641.00;;;-0.01;nan
43814;BME280;29669;55.706;37.656;2023-02-28T08:49:19;99652.59;;;-0.22;nan
43814;BME280;29669;55.706;37.656;2023-02-28T08:51:47;99642.13;;;-0.44;nan
43814;BME280;29669;55.706;37.656;2023-02-28T08:54:15;99641.88;;;-0.53;nan
43814;BME280;29669;55.706;37.656;2023-02-28T08:56:47;99622.34;;;-0.67;nan
43814;BME280;29669;55.706;37.656;2023-02-28T08:59:16;99623.44;;;-0.71;nan
43814;BME280;29669;55.706;37.656;2023-02-28T09:01:49;99626.09;;;-0.72;nan
43814;BME280;29669;55.706;37.656;2023-02-28T09:04:18;99606.13;;;-0.66;nan
43814;BME280;29669;55.706;37.656;2023-02-28T09:06:47;99604.50;;;-0.67;nan
43814;BME280;29669;55.706;37.656;2023-02-28T09:09:19;99610.91;;;-0.74;nan
43814;BME280;29669;55.706;37.656;2023-02-28T09:11:47;99619.25;;;-0.72;nan
43814;BME280;29669;55.706;37.656;2023-02-28T09:14:15;99594.41;;;-0.68;nan
43814;BME280;29669;55.706;37.656;2023-02-28T09:16:45;99589.63;;;-0.60;nan
43814;BME280;29669;55.706;37.656;2023-02-28T09:19:13;99576.81;;;-0.59;nan
43814;BME280;29669;55.706;37.656;2023-02-28T09:21:42;99582.31;;;-0.52;nan
43814;BME280;29669;55.706;37.656;2023-02-28T09:24:10;99567.34;;;-0.57;nan
43814;BME280;29669;55.706;37.656;2023-02-28T09:26:41;99547.25;;;-0.49;nan
43814;BME280;29669;55.706;37.656;2023-02-28T09:29:23;99545.88;;;-0.28;nan
43814;BME280;29669;55.706;37.656;2023-02-28T09:31:51;99553.34;;;-0.25;nan
43814;BME280;29669;55.706;37.656;2023-02-28T09:34:20;99569.75;;;-0.29;nan
43814;BME280;29669;55.706;37.656;2023-02-28T09:36:48;99560.44;;;-0.30;nan
43814;BME280;29669;55.706;37.656;2023-02-28T09:39:19;99564.66;;;-0.29;nan
43814;BME280;29669;55.706;37.656;2023-02-28T09:41:49;99555.06;;;-0.25;nan
43814;BME280;29669;55.706;37.656;2023-02-28T09:44:31;99580.34;;;-0.22;nan
43814;BME280;29669;55.706;37.656;2023-02-28T09:47:21;99580.34;;;-0.22;nan
43814;BME280;29669;55.706;37.656;2023-02-28T09:49:55;99571.75;;;-0.34;nan
43814;BME280;29669;55.706;37.656;2023-02-28T09:52:30;99570.84;;;-0.33;nan
43814;BME280;29669;55.706;37.656;2023-02-28T09:55:15;99539.94;;;-0.41;nan
43814;BME280;29669;55.706;37.656;2023-02-28T09:57:46;99525.25;;;-0.37;nan
43814;BME280;29669;55.706;37.656;2023-02-28T10:00:35;99532.78;;;-0.36;nan
43814;BME280;29669;55.706;37.656;2023-02-28T10:03:17;99539.94;;;-0.41;nan
43814;BME280;29669;55.706;37.656;2023-02-28T10:06:02;99558.28;;;-0.48;nan
43814;BME280;29669;55.706;37.656;2023-02-28T10:09:02;99534.84;;;-0.41;nan
43814;BME280;29669;55.706;37.656;2023-02-28T10:11:36;99527.69;;;-0.36;nan
43814;BME280;29669;55.706;37.656;2023-02-28T10:16:39;99523.31;;;-0.46;nan
43814;BME280;29669;55.706;37.656;2023-02-28T10:19:30;99508.13;;;-0.48;nan
43814;BME280;29669;55.706;37.656;2023-02-28T10:24:57;99482.31;;;-0.56;nan
43814;BME280;29669;55.706;37.656;2023-02-28T10:27:32;99506.28;;;-0.46;nan
43814;BME280;29669;55.706;37.656;2023-02-28T10:30:02;99474.97;;;-0.48;nan
43814;BME280;29669;55.706;37.656;2023-02-28T10:32:36;99490.56;;;-0.40;nan
43814;BME280;29669;55.706;37.656;2023-02-28T10:37:39;99476.69;;;-0.48;nan
43814;BME280;29669;55.706;37.656;2023-02-28T10:43:00;99456.31;;;-0.36;nan
43814;BME280;29669;55.706;37.656;2023-02-28T10:45:31;99481.19;;;-0.39;nan
43814;BME280;29669;55.706;37.656;2023-02-28T10:48:26;99477.13;;;-0.42;nan
43814;BME280;29669;55.706;37.656;2023-02-28T10:50:55;99461.50;;;-0.50;nan
43814;BME280;29669;55.706;37.656;2023-02-28T10:53:37;99475.25;;;-0.40;nan
43814;BME280;29669;55.706;37.656;2023-02-28T10:56:26;99457.84;;;-0.46;nan
43814;BME280;29669;55.706;37.656;2023-02-28T10:58:56;99458.84;;;-0.36;nan
43814;BME280;29669;55.706;37.656;2023-02-28T11:01:40;99450.78;;;-0.30;nan
43814;BME280;29669;55.706;37.656;2023-02-28T11:07:19;99443.47;;;-0.34;nan
43814;BME280;29669;55.706;37.656;2023-02-28T11:09:54;99425.22;;;-0.41;nan
43814;BME280;29669;55.706;37.656;2023-02-28T11:12:27;99427.66;;;-0.39;nan
43814;BME280;29669;55.706;37.656;2023-02-28T11:15:00;99426.81;;;-0.40;nan
43814;BME280;29669;55.706;37.656;2023-02-28T11:17:32;99422.75;;;-0.42;nan
43814;BME280;29669;55.706;37.656;2023-02-28T11:20:04;99425.50;;;-0.45;nan
43814;BME280;29669;55.706;37.656;2023-02-28T11:22:39;99415.13;;;-0.42;nan
43814;BME280;29669;55.706;37.656;2023-02-28T11:25:27;99412.78;;;-0.33;nan
43814;BME280;29669;55.706;37.656;2023-02-28T11:27:59;99410.94;;;-0.31;nan
43814;BME280;29669;55.706;37.656;2023-02-28T11:30:36;99400.03;;;-0.33;nan
43814;BME280;29669;55.706;37.656;2023-02-28T11:36:28;99390.44;;;-0.42;nan
43814;BME280;29669;55.706;37.656;2023-02-28T11:39:00;99396.34;;;-0.41;nan
43814;BME280;29669;55.706;37.656;2023-02-28T11:52:48;99376.66;;;-0.27;nan
43814;BME280;29669;55.706;37.656;2023-02-28T11:55:49;99379.81;;;-0.23;nan
43814;BME280;29669;55.706;37.656;2023-02-28T11:58:32;99380.13;;;-0.28;nan
43814;BME280;29669;55.706;37.656;2023-02-28T12:06:45;99352.66;;;-0.24;nan
43814;BME280;29669;55.706;37.656;2023-02-28T12:09:32;99392.88;;;-0.40;nan
43814;BME280;29669;55.706;37.656;2023-02-28T12:15:22;99367.69;;;-0.45;nan
43814;BME280;29669;55.706;37.656;2023-02-28T12:23:34;99355.44;;;-0.40;nan
43814;BME280;29669;55.706;37.656;2023-02-28T12:28:48;99365.56;;;-0.38;nan
43814;BME280;29669;55.706;37.656;2023-02-28T12:31:24;99348.84;;;-0.42;nan
43814;BME280;29669;55.706;37.656;2023-02-28T12:36:55;99345.34;;;-0.41;nan
43814;BME280;29669;55.706;37.656;2023-02-28T12:39:35;99346.41;;;-0.44;nan
43814;BME280;29669;55.706;37.656;2023-02-28T12:42:25;99340.47;;;-0.44;nan
43814;BME280;29669;55.706;37.656;2023-02-28T12:45:02;99323.16;;;-0.52;nan
43814;BME280;29669;55.706;37.656;2023-02-28T12:47:38;99318.56;;;-0.59;nan
43814;BME280;29669;55.706;37.656;2023-02-28T12:50:10;99319.59;;;-0.62;nan
43814;BME280;29669;55.706;37.656;2023-02-28T12:52:54;99323.34;;;-0.55;nan
43814;BME280;29669;55.706;37.656;2023-02-28T13:00:33;99307.66;;;-0.61;nan
43814;BME280;29669;55.706;37.656;2023-02-28T13:03:34;99299.72;;;-0.57;nan
43814;BME280;29669;55.706;37.656;2023-02-28T13:09:16;99269.41;;;-0.49;nan
43814;BME280;29669;55.706;37.656;2023-02-28T13:11:48;99288.25;;;-0.39;nan
43814;BME280;29669;55.706;37.656;2023-02-28T13:14:35;99292.34;;;-0.36;nan
43814;BME280;29669;55.706;37.656;2023-02-28T13:19:46;99272.53;;;-0.45;nan
43814;BME280;29669;55.706;37.656;2023-02-28T13:24:56;99268.88;;;-0.41;nan
43814;BME280;29669;55.706;37.656;2023-02-28T13:27:36;99273.19;;;-0.42;nan
43814;BME280;29669;55.706;37.656;2023-02-28T13:33:31;99262.47;;;-0.47;nan
43814;BME280;29669;55.706;37.656;2023-02-28T13:38:39;99258.19;;;-0.46;nan
43814;BME280;29669;55.706;37.656;2023-02-28T13:44:05;99238.03;;;-0.49;nan
43814;BME280;29669;55.706;37.656;2023-02-28T13:49:30;99247.06;;;-0.45;nan
43814;BME280;29669;55.706;37.656;2023-02-28T14:03:22;99218.06;;;-0.32;nan
43814;BME280;29669;55.706;37.656;2023-02-28T14:09:29;99218.75;;;-0.30;nan
43814;BME280;29669;55.706;37.656;2023-02-28T14:11:55;99230.09;;;-0.34;nan
43814;BME280;29669;55.706;37.656;2023-02-28T14:17:17;99231.63;;;-0.31;nan
43814;BME280;29669;55.706;37.656;2023-02-28T14:19:46;99223.50;;;-0.36;nan
43814;BME280;29669;55.706;37.656;2023-02-28T14:33:26;99206.00;;;-0.30;nan
43814;BME280;29669;55.706;37.656;2023-02-28T14:41:17;99209.50;;;-0.31;nan
43814;BME280;29669;55.706;37.656;2023-02-28T14:43:52;99199.50;;;-0.34;nan
43814;BME280;29669;55.706;37.656;2023-02-28T14:46:21;99192.78;;;-0.35;nan
43814;BME280;29669;55.706;37.656;2023-02-28T14:48:50;99198.78;;;-0.36;nan
43814;BME280;29669;55.706;37.656;2023-02-28T14:51:23;99176.91;;;-0.38;nan
43814;BME280;29669;55.706;37.656;2023-02-28T14:53:56;99192.19;;;-0.38;nan
43814;BME280;29669;55.706;37.656;2023-02-28T14:56:34;99176.06;;;-0.39;nan
43814;BME280;29669;55.706;37.656;2023-02-28T14:59:03;99188.81;;;-0.39;nan
43814;BME280;29669;55.706;37.656;2023-02-28T15:01:31;99168.53;;;-0.40;nan
43814;BME280;29669;55.706;37.656;2023-02-28T15:04:04;99187.88;;;-0.38;nan
43814;BME280;29669;55.706;37.656;2023-02-28T15:06:33;99176.91;;;-0.38;nan
43814;BME280;29669;55.706;37.656;2023-02-28T15:09:10;99173.22;;;-0.34;nan
43814;BME280;29669;55.706;37.656;2023-02-28T15:11:41;99186.75;;;-0.34;nan
43814;BME280;29669;55.706;37.656;2023-02-28T15:14:19;99185.63;;;-0.30;nan
43814;BME280;29669;55.706;37.656;2023-02-28T15:16:59;99184.72;;;-0.29;nan
43814;BME280;29669;55.706;37.656;2023-02-28T15:19:32;99170.81;;;-0.25;nan
43814;BME280;29669;55.706;37.656;2023-02-28T15:22:15;99172.13;;;-0.19;nan
43814;BME280;29669;55.706;37.656;2023-02-28T15:24:47;99178.94;;;-0.20;nan
43814;BME280;29669;55.706;37.656;2023-02-28T15:27:31;99177.81;;;-0.16;nan
43814;BME280;29669;55.706;37.656;2023-02-28T15:30:06;99165.84;;;-0.15;nan
43814;BME280;29669;55.706;37.656;2023-02-28T15:32:37;99169.81;;;-0.11;nan
43814;BME280;29669;55.706;37.656;2023-02-28T15:37:55;99155.91;;;-0.07;nan
43814;BME280;29669;55.706;37.656;2023-02-28T15:40:25;99161.59;;;-0.04;nan
43814;BME280;29669;55.706;37.656;2023-02-28T15:43:06;99156.06;;;0.03;nan
43814;BME280;29669;55.706;37.656;2023-02-28T15:45:44;99159.09;;;0.08;nan
43814;BME280;29669;55.706;37.656;2023-02-28T15:48:21;99149.69;;;0.08;nan
43814;BME280;29669;55.706;37.656;2023-02-28T15:51:02;99160.72;;;0.09;nan
43814;BME280;29669;55.706;37.656;2023-02-28T15:53:43;99150.50;;;0.09;nan
43814;BME280;29669;55.706;37.656;2023-02-28T15:56:27;99148.34;;;0.15;nan
43814;BME280;29669;55.706;37.656;2023-02-28T15:58:59;99146.59;;;0.16;nan
43814;BME280;29669;55.706;37.656;2023-02-28T16:01:31;99142.75;;;0.21;nan